sensor_id;sensor_type;location;lat;lon;timestamp;pressure;altitude;pressure_sealevel;temperature;humidity
11499;BME280;5806;48.748;9.278;2023-04-28T00:00:24;100750.80;;;11.90;59.70
11499;BME280;5806;48.748;9.278;2023-04-28T00:02:52;100745.37;;;11.93;60.18
11499;BME280;5806;48.748;9.278;2023-04-28T00:05:20;100757.61;;;11.88;60.85
11499;BME280;5806;48.748;9.278;2023-04-28T00:07:50;100748.19;;;11.81;60.28
11499;BME280;5806;48.748;9.278;2023-04-28T00:10:18;100739.44;;;11.82;61.24
11499;BME280;5806;48.748;9.278;2023-04-28T00:12:45;100746.57;;;11.83;61.29
11499;BME280;5806;48.748;9.278;2023-04-28T00:15:13;100745.16;;;11.80;62.84
11499;BME280;5806;48.748;9.278;2023-04-28T00:17:41;100730.55;;;11.75;63.30
11499;BME280;5806;48.748;9.278;2023-04-28T00:20:10;100738.00;;;11.77;62.76
11499;BME280;5806;48.748;9.278;2023-04-28T00:22:38;100725.28;;;11.87;59.67
11499;BME280;5806;48.748;9.278;2023-04-28T00:25:06;100718.47;;;11.73;61.93
11499;BME280;5806;48.748;9.278;2023-04-28T00:27:34;100718.87;;;11.65;63.20
11499;BME280;5806;48.748;9.278;2023-04-28T00:30:02;100718.07;;;11.65;63.79
11499;BME280;5806;48.748;9.278;2023-04-28T00:32:29;100716.10;;;11.63;63.98
11499;BME280;5806;48.748;9.278;2023-04-28T00:34:57;100713.89;;;11.62;64.35
11499;BME280;5806;48.748;9.278;2023-04-28T00:37:24;100710.17;;;11.68;63.93
11499;BME280;5806;48.748;9.278;2023-04-28T00:39:55;100710.27;;;11.59;65.46
11499;BME280;5806;48.748;9.278;2023-04-28T00:42:23;100692.67;;;11.55;64.76
11499;BME280;5806;48.748;9.278;2023-04-28T00:44:50;100691.30;;;11.55;64.85
11499;BME280;5806;48.748;9.278;2023-04-28T00:47:18;100683.30;;;11.51;66.34
11499;BME280;5806;48.748;9.278;2023-04-28T00:49:46;100684.70;;;11.54;65.11
11499;BME280;5806;48.748;9.278;2023-04-28T00:52:15;100690.84;;;11.44;65.25
11499;BME280;5806;48.748;9.278;2023-04-28T00:54:42;100679.11;;;11.46;65.53
11499;BME280;5806;48.748;9.278;2023-04-28T00:57:12;100687.53;;;11.42;67.54
11499;BME280;5806;48.748;9.278;2023-04-28T00:59:39;100686.05;;;11.37;66.46
11499;BME280;5806;48.748;9.278;2023-04-28T01:02:07;100675.49;;;11.43;66.72
11499;BME280;5806;48.748;9.278;2023-04-28T01:04:36;100675.84;;;11.49;66.15
11499;BME280;5806;48.748;9.278;2023-04-28T01:07:04;100678.56;;;11.61;62.84
11499;BME280;5806;48.748;9.278;2023-04-28T01:09:32;100673.60;;;11.60;66.51
11499;BME280;5806;48.748;9.278;2023-04-28T01:12:00;100670.89;;;11.46;66.61
11499;BME280;5806;48.748;9.278;2023-04-28T01:14:27;100672.34;;;11.51;64.63
11499;BME280;5806;48.748;9.278;2023-04-28T01:16:55;100675.72;;;11.58;65.12
11499;BME280;5806;48.748;9.278;2023-04-28T01:19:23;100678.02;;;11.47;65.69
11499;BME280;5806;48.748;9.278;2023-04-28T01:21:51;100671.81;;;11.54;66.06
11499;BME280;5806;48.748;9.278;2023-04-28T01:24:18;100673.50;;;11.55;66.34
11499;BME280;5806;48.748;9.278;2023-04-28T01:26:46;100679.39;;;11.47;67.06
11499;BME280;5806;48.748;9.278;2023-04-28T01:29:14;100683.56;;;11.36;68.33
11499;BME280;5806;48.748;9.278;2023-04-28T01:31:41;100673.19;;;11.21;70.24
11499;BME280;5806;48.748;9.278;2023-04-28T01:34:09;100671.00;;;11.21;71.73
11499;BME280;5806;48.748;9.278;2023-04-28T01:36:36;100672.98;;;11.09;71.99
11499;BME280;5806;48.748;9.278;2023-04-28T01:39:04;100643.28;;;10.87;72.57
11499;BME280;5806;48.748;9.278;2023-04-28T01:41:32;100674.98;;;10.99;73.89
11499;BME280;5806;48.748;9.278;2023-04-28T01:44:02;100672.66;;;10.91;74.53
11499;BME280;5806;48.748;9.278;2023-04-28T01:46:31;100666.93;;;10.79;75.28
11499;BME280;5806;48.748;9.278;2023-04-28T01:49:00;100677.11;;;10.81;76.38
11499;BME280;5806;48.748;9.278;2023-04-28T01:51:28;100672.41;;;10.79;76.13
11499;BME280;5806;48.748;9.278;2023-04-28T01:53:56;100666.45;;;10.82;76.02
11499;BME280;5806;48.748;9.278;2023-04-28T01:56:24;100666.31;;;10.74;76.98
11499;BME280;5806;48.748;9.278;2023-04-28T01:58:52;100663.87;;;10.75;77.03
11499;BME280;5806;48.748;9.278;2023-04-28T02:01:21;100661.85;;;10.71;76.96
11499;BME280;5806;48.748;9.278;2023-04-28T02:03:48;100658.59;;;10.71;76.64
11499;BME280;5806;48.748;9.278;2023-04-28T02:06:16;100654.86;;;10.77;76.67
11499;BME280;5806;48.748;9.278;2023-04-28T02:08:43;100664.71;;;10.76;76.89
11499;BME280;5806;48.748;9.278;2023-04-28T02:11:11;100668.62;;;10.80;77.04
11499;BME280;5806;48.748;9.278;2023-04-28T02:13:38;100671.03;;;10.79;76.14
11499;BME280;5806;48.748;9.278;2023-04-28T02:16:06;100671.38;;;10.68;77.59
11499;BME280;5806;48.748;9.278;2023-04-28T02:18:34;100671.97;;;10.84;77.73
11499;BME280;5806;48.748;9.278;2023-04-28T02:21:08;100673.16;;;10.74;78.25
11499;BME280;5806;48.748;9.278;2023-04-28T02:23:37;100668.55;;;10.63;78.60
11499;BME280;5806;48.748;9.278;2023-04-28T02:26:05;100662.65;;;10.69;78.04
11499;BME280;5806;48.748;9.278;2023-04-28T02:28:32;100663.67;;;10.79;77.85
11499;BME280;5806;48.748;9.278;2023-04-28T02:31:07;100677.59;;;10.78;78.13
11499;BME280;5806;48.748;9.278;2023-04-28T02:33:36;100671.47;;;10.73;78.55
11499;BME280;5806;48.748;9.278;2023-04-28T02:36:05;100669.53;;;10.71;78.11
11499;BME280;5806;48.748;9.278;2023-04-28T02:38:33;100666.75;;;10.69;78.42
11499;BME280;5806;48.748;9.278;2023-04-28T02:41:04;100668.93;;;10.69;79.05
11499;BME280;5806;48.748;9.278;2023-04-28T02:43:34;100659.36;;;10.69;78.79
11499;BME280;5806;48.748;9.278;2023-04-28T02:46:03;100658.31;;;10.70;79.62
11499;BME280;5806;48.748;9.278;2023-04-28T02:48:31;100651.66;;;10.66;79.49
11499;BME280;5806;48.748;9.278;2023-04-28T02:51:01;100653.52;;;10.63;80.20
11499;BME280;5806;48.748;9.278;2023-04-28T02:53:31;100658.89;;;10.58;80.09
11499;BME280;5806;48.748;9.278;2023-04-28T02:55:58;100651.70;;;10.41;80.62
11499;BME280;5806;48.748;9.278;2023-04-28T02:58:27;100651.93;;;10.53;79.29
11499;BME280;5806;48.748;9.278;2023-04-28T03:00:54;100646.44;;;10.65;78.58
11499;BME280;5806;48.748;9.278;2023-04-28T03:03:22;100638.14;;;10.60;79.01
11499;BME280;5806;48.748;9.278;2023-04-28T03:05:50;100631.42;;;10.53;79.12
11499;BME280;5806;48.748;9.278;2023-04-28T03:08:17;100634.02;;;10.46;76.85
11499;BME280;5806;48.748;9.278;2023-04-28T03:10:46;100631.14;;;10.52;79.17
11499;BME280;5806;48.748;9.278;2023-04-28T03:13:13;100623.71;;;10.64;75.71
11499;BME280;5806;48.748;9.278;2023-04-28T03:15:41;100631.95;;;10.67;77.57
11499;BME280;5806;48.748;9.278;2023-04-28T03:18:08;100626.64;;;10.60;77.19
11499;BME280;5806;48.748;9.278;2023-04-28T03:20:36;100630.50;;;10.62;77.94
11499;BME280;5806;48.748;9.278;2023-04-28T03:23:04;100624.94;;;10.57;78.24
11499;BME280;5806;48.748;9.278;2023-04-28T03:25:31;100620.00;;;10.56;77.82
11499;BME280;5806;48.748;9.278;2023-04-28T03:27:58;100614.70;;;10.64;77.16
11499;BME280;5806;48.748;9.278;2023-04-28T03:30:26;100620.28;;;10.57;77.73
11499;BME280;5806;48.748;9.278;2023-04-28T03:32:56;100613.22;;;10.45;79.58
11499;BME280;5806;48.748;9.278;2023-04-28T03:35:23;100607.39;;;10.41;77.97
11499;BME280;5806;48.748;9.278;2023-04-28T03:37:50;100617.03;;;10.58;77.53
11499;BME280;5806;48.748;9.278;2023-04-28T03:40:18;100615.17;;;10.61;77.71
11499;BME280;5806;48.748;9.278;2023-04-28T03:42:45;100617.31;;;10.59;77.99
11499;BME280;5806;48.748;9.278;2023-04-28T03:45:13;100616.05;;;10.50;78.64
11499;BME280;5806;48.748;9.278;2023-04-28T03:47:41;100614.73;;;10.52;79.28
11499;BME280;5806;48.748;9.278;2023-04-28T03:50:09;100607.02;;;10.35;80.04
11499;BME280;5806;48.748;9.278;2023-04-28T03:52:36;100595.09;;;10.41;79.61
11499;BME280;5806;48.748;9.278;2023-04-28T03:55:04;100600.17;;;10.49;78.97
11499;BME280;5806;48.748;9.278;2023-04-28T03:57:32;100601.53;;;10.49;79.43
11499;BME280;5806;48.748;9.278;2023-04-28T04:00:01;100591.84;;;10.56;78.83
11499;BME280;5806;48.748;9.278;2023-04-28T04:02:29;100581.83;;;10.47;79.67
11499;BME280;5806;48.748;9.278;2023-04-28T04:04:56;100579.29;;;10.43;79.84
11499;BME280;5806;48.748;9.278;2023-04-28T04:07:24;100573.14;;;10.50;78.71
11499;BME280;5806;48.748;9.278;2023-04-28T04:09:51;100570.25;;;10.57;76.40
11499;BME280;5806;48.748;9.278;2023-04-28T04:12:19;100560.48;;;10.47;77.70
11499;BME280;5806;48.748;9.278;2023-04-28T04:14:46;100544.66;;;10.35;78.55
11499;BME280;5806;48.748;9.278;2023-04-28T04:17:14;100538.27;;;10.29;78.72
11499;BME280;5806;48.748;9.278;2023-04-28T04:19:42;100533.25;;;10.38;79.28
11499;BME280;5806;48.748;9.278;2023-04-28T04:22:09;100535.09;;;10.49;79.29
11499;BME280;5806;48.748;9.278;2023-04-28T04:24:37;100528.66;;;10.41;78.27
11499;BME280;5806;48.748;9.278;2023-04-28T04:27:04;100524.48;;;10.52;75.79
11499;BME280;5806;48.748;9.278;2023-04-28T04:29:32;100521.59;;;10.42;76.53
11499;BME280;5806;48.748;9.278;2023-04-28T04:32:01;100524.48;;;10.52;76.24
11499;BME280;5806;48.748;9.278;2023-04-28T04:34:28;100525.69;;;10.42;75.02
11499;BME280;5806;48.748;9.278;2023-04-28T04:36:56;100522.16;;;10.44;76.36
11499;BME280;5806;48.748;9.278;2023-04-28T04:39:23;100520.59;;;10.48;74.45
11499;BME280;5806;48.748;9.278;2023-04-28T04:41:51;100522.47;;;10.62;73.91
11499;BME280;5806;48.748;9.278;2023-04-28T04:44:19;100518.45;;;10.67;73.19
11499;BME280;5806;48.748;9.278;2023-04-28T04:46:47;100523.84;;;10.62;72.27
11499;BME280;5806;48.748;9.278;2023-04-28T04:49:15;100514.86;;;10.64;73.03
11499;BME280;5806;48.748;9.278;2023-04-28T04:51:43;100525.88;;;10.69;72.72
11499;BME280;5806;48.748;9.278;2023-04-28T04:54:10;100532.48;;;10.70;73.00
11499;BME280;5806;48.748;9.278;2023-04-28T04:56:39;100529.35;;;10.64;73.95
11499;BME280;5806;48.748;9.278;2023-04-28T04:59:08;100528.70;;;10.74;72.85
11499;BME280;5806;48.748;9.278;2023-04-28T05:01:35;100526.28;;;10.77;74.21
11499;BME280;5806;48.748;9.278;2023-04-28T05:04:03;100529.35;;;10.64;73.60
11499;BME280;5806;48.748;9.278;2023-04-28T05:06:30;100516.11;;;10.73;72.36
11499;BME280;5806;48.748;9.278;2023-04-28T05:08:59;100524.55;;;10.71;72.52
11499;BME280;5806;48.748;9.278;2023-04-28T05:11:26;100529.94;;;10.83;73.03
11499;BME280;5806;48.748;9.278;2023-04-28T05:13:54;100534.36;;;10.84;74.02
11499;BME280;5806;48.748;9.278;2023-04-28T05:16:21;100536.66;;;10.75;73.38
11499;BME280;5806;48.748;9.278;2023-04-28T05:18:49;100537.30;;;10.80;72.79
11499;BME280;5806;48.748;9.278;2023-04-28T05:21:17;100541.64;;;10.78;72.62
11499;BME280;5806;48.748;9.278;2023-04-28T05:23:44;100542.88;;;10.87;72.85
11499;BME280;5806;48.748;9.278;2023-04-28T05:26:12;100540.84;;;10.80;72.81
11499;BME280;5806;48.748;9.278;2023-04-28T05:28:40;100538.33;;;10.93;72.58
11499;BME280;5806;48.748;9.278;2023-04-28T05:31:08;100536.73;;;10.80;74.20
11499;BME280;5806;48.748;9.278;2023-04-28T05:33:37;100536.49;;;10.82;74.38
11499;BME280;5806;48.748;9.278;2023-04-28T05:36:04;100529.73;;;10.87;73.77
11499;BME280;5806;48.748;9.278;2023-04-28T05:38:33;100513.45;;;10.78;74.68
11499;BME280;5806;48.748;9.278;2023-04-28T05:41:01;100518.43;;;10.81;74.11
11499;BME280;5806;48.748;9.278;2023-04-28T05:43:29;100524.41;;;10.94;74.13
11499;BME280;5806;48.748;9.278;2023-04-28T05:45:56;100526.67;;;10.83;75.71
11499;BME280;5806;48.748;9.278;2023-04-28T05:48:24;100529.33;;;10.78;74.93
11499;BME280;5806;48.748;9.278;2023-04-28T05:50:51;100526.55;;;10.92;74.75
11499;BME280;5806;48.748;9.278;2023-04-28T05:53:19;100520.83;;;10.94;74.23
11499;BME280;5806;48.748;9.278;2023-04-28T05:55:46;100521.49;;;11.01;74.63
11499;BME280;5806;48.748;9.278;2023-04-28T05:58:14;100523.56;;;10.94;76.20
11499;BME280;5806;48.748;9.278;2023-04-28T06:00:41;100516.83;;;11.01;75.57
11499;BME280;5806;48.748;9.278;2023-04-28T06:03:09;100525.21;;;10.95;76.04
11499;BME280;5806;48.748;9.278;2023-04-28T06:05:36;100524.13;;;10.96;75.31
11499;BME280;5806;48.748;9.278;2023-04-28T06:08:04;100513.78;;;10.98;75.35
11499;BME280;5806;48.748;9.278;2023-04-28T06:10:33;100506.34;;;11.12;75.26
11499;BME280;5806;48.748;9.278;2023-04-28T06:13:00;100516.38;;;11.07;75.77
11499;BME280;5806;48.748;9.278;2023-04-28T06:15:30;100509.98;;;11.01;76.35
11499;BME280;5806;48.748;9.278;2023-04-28T06:17:57;100508.44;;;11.08;76.26
11499;BME280;5806;48.748;9.278;2023-04-28T06:20:25;100507.42;;;11.11;75.89
11499;BME280;5806;48.748;9.278;2023-04-28T06:22:52;100501.98;;;11.14;76.37
11499;BME280;5806;48.748;9.278;2023-04-28T06:25:19;100499.70;;;11.08;76.11
11499;BME280;5806;48.748;9.278;2023-04-28T06:27:47;100499.81;;;11.16;75.89
11499;BME280;5806;48.748;9.278;2023-04-28T06:30:18;100504.50;;;11.18;75.83
11499;BME280;5806;48.748;9.278;2023-04-28T06:32:45;100509.23;;;11.22;75.61
11499;BME280;5806;48.748;9.278;2023-04-28T06:35:14;100503.45;;;11.21;75.32
11499;BME280;5806;48.748;9.278;2023-04-28T06:37:42;100502.33;;;11.20;75.65
11499;BME280;5806;48.748;9.278;2023-04-28T06:40:10;100496.82;;;11.17;75.55
11499;BME280;5806;48.748;9.278;2023-04-28T06:42:37;100505.91;;;11.20;76.14
11499;BME280;5806;48.748;9.278;2023-04-28T06:45:05;100504.54;;;11.20;76.84
11499;BME280;5806;48.748;9.278;2023-04-28T06:47:33;100514.56;;;11.31;75.53
11499;BME280;5806;48.748;9.278;2023-04-28T06:50:00;100503.73;;;11.41;75.43
11499;BME280;5806;48.748;9.278;2023-04-28T06:52:27;100506.70;;;11.37;75.88
11499;BME280;5806;48.748;9.278;2023-04-28T06:54:56;100505.64;;;11.38;75.39
11499;BME280;5806;48.748;9.278;2023-04-28T06:57:23;100503.34;;;11.52;75.04
11499;BME280;5806;48.748;9.278;2023-04-28T06:59:51;100504.98;;;11.50;75.15
11499;BME280;5806;48.748;9.278;2023-04-28T07:02:18;100510.92;;;11.64;75.34
11499;BME280;5806;48.748;9.278;2023-04-28T07:04:46;100502.74;;;11.47;74.89
11499;BME280;5806;48.748;9.278;2023-04-28T07:07:13;100500.59;;;11.52;75.12
11499;BME280;5806;48.748;9.278;2023-04-28T07:09:40;100504.42;;;11.51;74.46
11499;BME280;5806;48.748;9.278;2023-04-28T07:12:08;100511.77;;;11.64;74.33
11499;BME280;5806;48.748;9.278;2023-04-28T07:14:35;100511.32;;;11.72;74.09
11499;BME280;5806;48.748;9.278;2023-04-28T07:17:03;100520.07;;;11.72;74.11
11499;BME280;5806;48.748;9.278;2023-04-28T07:19:30;100518.73;;;11.74;74.61
11499;BME280;5806;48.748;9.278;2023-04-28T07:21:58;100516.08;;;11.79;74.53
11499;BME280;5806;48.748;9.278;2023-04-28T07:24:25;100519.38;;;11.81;73.79
11499;BME280;5806;48.748;9.278;2023-04-28T07:26:53;100523.40;;;11.74;73.97
11499;BME280;5806;48.748;9.278;2023-04-28T07:29:21;100525.22;;;11.87;73.72
11499;BME280;5806;48.748;9.278;2023-04-28T07:31:48;100525.78;;;11.89;73.08
11499;BME280;5806;48.748;9.278;2023-04-28T07:34:16;100528.77;;;11.88;73.73
11499;BME280;5806;48.748;9.278;2023-04-28T07:36:43;100528.97;;;11.81;73.81
11499;BME280;5806;48.748;9.278;2023-04-28T07:39:11;100524.80;;;11.76;73.62
11499;BME280;5806;48.748;9.278;2023-04-28T07:41:39;100521.61;;;11.84;73.71
11499;BME280;5806;48.748;9.278;2023-04-28T07:44:06;100522.50;;;11.90;73.84
11499;BME280;5806;48.748;9.278;2023-04-28T07:46:34;100520.63;;;11.93;74.49
11499;BME280;5806;48.748;9.278;2023-04-28T07:49:02;100522.81;;;11.93;74.42
11499;BME280;5806;48.748;9.278;2023-04-28T07:51:30;100513.55;;;11.97;74.30
11499;BME280;5806;48.748;9.278;2023-04-28T07:53:58;100515.51;;;12.01;73.66
11499;BME280;5806;48.748;9.278;2023-04-28T07:56:25;100517.55;;;12.11;74.52
11499;BME280;5806;48.748;9.278;2023-04-28T07:58:53;100518.36;;;12.09;73.95
11499;BME280;5806;48.748;9.278;2023-04-28T08:01:20;100518.13;;;12.13;74.25
11499;BME280;5806;48.748;9.278;2023-04-28T08:03:48;100504.75;;;12.19;74.21
11499;BME280;5806;48.748;9.278;2023-04-28T08:06:15;100504.81;;;12.26;73.86
11499;BME280;5806;48.748;9.278;2023-04-28T08:08:43;100510.95;;;12.36;73.66
11499;BME280;5806;48.748;9.278;2023-04-28T08:11:10;100513.81;;;12.46;73.99
11499;BME280;5806;48.748;9.278;2023-04-28T08:13:39;100512.25;;;12.55;73.89
11499;BME280;5806;48.748;9.278;2023-04-28T08:16:06;100513.16;;;12.65;73.48
11499;BME280;5806;48.748;9.278;2023-04-28T08:18:34;100519.47;;;12.63;73.63
11499;BME280;5806;48.748;9.278;2023-04-28T08:21:01;100527.36;;;12.57;73.76
11499;BME280;5806;48.748;9.278;2023-04-28T08:23:29;100518.28;;;12.57;73.70
11499;BME280;5806;48.748;9.278;2023-04-28T08:25:57;100510.22;;;12.74;74.00
11499;BME280;5806;48.748;9.278;2023-04-28T08:28:25;100509.77;;;12.87;73.89
11499;BME280;5806;48.748;9.278;2023-04-28T08:30:53;100507.46;;;13.03;73.58
11499;BME280;5806;48.748;9.278;2023-04-28T08:33:21;100502.94;;;13.21;73.35
11499;BME280;5806;48.748;9.278;2023-04-28T08:35:49;100507.35;;;13.27;72.51
11499;BME280;5806;48.748;9.278;2023-04-28T08:38:17;100514.22;;;13.27;72.65
11499;BME280;5806;48.748;9.278;2023-04-28T08:40:44;100520.45;;;13.15;72.19
11499;BME280;5806;48.748;9.278;2023-04-28T08:43:12;100516.06;;;13.14;73.03
11499;BME280;5806;48.748;9.278;2023-04-28T08:45:41;100514.63;;;13.04;72.66
11499;BME280;5806;48.748;9.278;2023-04-28T08:48:20;100508.63;;;13.10;72.83
11499;BME280;5806;48.748;9.278;2023-04-28T08:50:50;100502.34;;;13.17;72.73
11499;BME280;5806;48.748;9.278;2023-04-28T08:53:21;100499.09;;;13.25;72.08
11499;BME280;5806;48.748;9.278;2023-04-28T08:55:57;100506.05;;;13.37;71.80
11499;BME280;5806;48.748;9.278;2023-04-28T08:58:23;100512.41;;;13.40;72.21
11499;BME280;5806;48.748;9.278;2023-04-28T09:00:52;100506.10;;;13.47;71.82
11499;BME280;5806;48.748;9.278;2023-04-28T09:03:19;100511.93;;;13.56;71.87
11499;BME280;5806;48.748;9.278;2023-04-28T09:05:47;100521.82;;;13.57;72.17
11499;BME280;5806;48.748;9.278;2023-04-28T09:08:15;100522.08;;;13.53;71.88
11499;BME280;5806;48.748;9.278;2023-04-28T09:10:44;100523.20;;;13.57;71.47
11499;BME280;5806;48.748;9.278;2023-04-28T09:13:25;100518.78;;;13.51;72.30
11499;BME280;5806;48.748;9.278;2023-04-28T09:15:58;100520.95;;;13.49;71.43
11499;BME280;5806;48.748;9.278;2023-04-28T09:18:23;100516.82;;;13.46;72.09
11499;BME280;5806;48.748;9.278;2023-04-28T09:20:50;100515.48;;;13.54;72.07
11499;BME280;5806;48.748;9.278;2023-04-28T09:23:21;100505.67;;;13.68;72.63
11499;BME280;5806;48.748;9.278;2023-04-28T09:25:57;100511.16;;;13.65;71.94
11499;BME280;5806;48.748;9.278;2023-04-28T09:28:25;100516.89;;;13.56;71.91
11499;BME280;5806;48.748;9.278;2023-04-28T09:30:53;100513.83;;;13.53;72.85
11499;BME280;5806;48.748;9.278;2023-04-28T09:33:20;100513.55;;;13.49;73.59
11499;BME280;5806;48.748;9.278;2023-04-28T09:35:49;100512.70;;;13.46;74.28
11499;BME280;5806;48.748;9.278;2023-04-28T09:38:18;100512.59;;;13.31;76.31
11499;BME280;5806;48.748;9.278;2023-04-28T09:40:56;100513.72;;;13.35;77.84
11499;BME280;5806;48.748;9.278;2023-04-28T09:43:26;100518.95;;;13.37;78.42
11499;BME280;5806;48.748;9.278;2023-04-28T09:45:56;100513.70;;;13.30;79.42
11499;BME280;5806;48.748;9.278;2023-04-28T09:48:34;100507.92;;;13.27;80.48
11499;BME280;5806;48.748;9.278;2023-04-28T09:51:04;100506.83;;;13.30;82.12
11499;BME280;5806;48.748;9.278;2023-04-28T09:53:33;100512.02;;;13.22;82.91
11499;BME280;5806;48.748;9.278;2023-04-28T09:56:02;100523.02;;;13.24;82.39
11499;BME280;5806;48.748;9.278;2023-04-28T09:58:34;100518.91;;;13.27;83.55
11499;BME280;5806;48.748;9.278;2023-04-28T10:01:04;100507.28;;;13.15;85.09
11499;BME280;5806;48.748;9.278;2023-04-28T10:03:33;100502.28;;;13.07;84.93
11499;BME280;5806;48.748;9.278;2023-04-28T10:06:01;100508.94;;;13.16;84.82
11499;BME280;5806;48.748;9.278;2023-04-28T10:08:29;100508.18;;;13.25;84.56
11499;BME280;5806;48.748;9.278;2023-04-28T10:10:57;100507.84;;;13.19;84.78
11499;BME280;5806;48.748;9.278;2023-04-28T10:13:24;100509.95;;;13.07;85.33
11499;BME280;5806;48.748;9.278;2023-04-28T10:15:52;100506.42;;;13.09;85.79
11499;BME280;5806;48.748;9.278;2023-04-28T10:18:22;100507.82;;;13.14;86.12
11499;BME280;5806;48.748;9.278;2023-04-28T10:20:52;100509.55;;;13.25;85.63
11499;BME280;5806;48.748;9.278;2023-04-28T10:23:30;100507.66;;;13.28;85.70
11499;BME280;5806;48.748;9.278;2023-04-28T10:25:57;100506.80;;;13.25;86.56
11499;BME280;5806;48.748;9.278;2023-04-28T10:28:26;100504.57;;;13.20;86.33
11499;BME280;5806;48.748;9.278;2023-04-28T10:31:10;100508.95;;;13.18;87.41
11499;BME280;5806;48.748;9.278;2023-04-28T10:33:38;100498.48;;;13.15;88.24
11499;BME280;5806;48.748;9.278;2023-04-28T10:36:07;100492.25;;;13.27;88.16
11499;BME280;5806;48.748;9.278;2023-04-28T10:38:35;100498.59;;;13.30;89.32
11499;BME280;5806;48.748;9.278;2023-04-28T10:41:04;100501.94;;;13.37;88.81
11499;BME280;5806;48.748;9.278;2023-04-28T10:43:35;100501.97;;;13.45;88.56
11499;BME280;5806;48.748;9.278;2023-04-28T10:46:06;100493.73;;;13.47;88.21
11499;BME280;5806;48.748;9.278;2023-04-28T10:56:25;100499.34;;;13.67;88.77
11499;BME280;5806;48.748;9.278;2023-04-28T10:58:59;100496.05;;;13.65;88.81
11499;BME280;5806;48.748;9.278;2023-04-28T11:01:28;100478.45;;;13.66;89.87
11499;BME280;5806;48.748;9.278;2023-04-28T11:03:59;100489.47;;;13.74;89.97
11499;BME280;5806;48.748;9.278;2023-04-28T11:06:30;100489.52;;;13.79;89.46
11499;BME280;5806;48.748;9.278;2023-04-28T11:14:33;100482.15;;;14.02;88.94
11499;BME280;5806;48.748;9.278;2023-04-28T11:17:05;100480.83;;;14.19;89.02
11499;BME280;5806;48.748;9.278;2023-04-28T11:19:42;100473.11;;;14.14;88.50
11499;BME280;5806;48.748;9.278;2023-04-28T11:22:20;100475.89;;;14.19;88.91
11499;BME280;5806;48.748;9.278;2023-04-28T11:24:59;100475.39;;;14.27;88.68
11499;BME280;5806;48.748;9.278;2023-04-28T11:27:31;100471.80;;;14.36;87.85
11499;BME280;5806;48.748;9.278;2023-04-28T11:29:59;100466.88;;;14.41;87.31
11499;BME280;5806;48.748;9.278;2023-04-28T11:32:32;100463.30;;;14.55;88.46
11499;BME280;5806;48.748;9.278;2023-04-28T11:35:00;100468.80;;;14.55;87.63
11499;BME280;5806;48.748;9.278;2023-04-28T11:37:28;100463.58;;;14.51;85.63
11499;BME280;5806;48.748;9.278;2023-04-28T11:39:56;100463.33;;;14.63;86.66
11499;BME280;5806;48.748;9.278;2023-04-28T11:42:23;100458.33;;;14.93;86.67
11499;BME280;5806;48.748;9.278;2023-04-28T11:44:53;100451.42;;;15.10;84.55
11499;BME280;5806;48.748;9.278;2023-04-28T11:47:28;100448.66;;;15.15;83.87
11499;BME280;5806;48.748;9.278;2023-04-28T11:49:56;100451.64;;;15.46;85.26
11499;BME280;5806;48.748;9.278;2023-04-28T11:52:24;100448.13;;;15.13;82.77
11499;BME280;5806;48.748;9.278;2023-04-28T11:54:56;100452.26;;;15.13;84.57
11499;BME280;5806;48.748;9.278;2023-04-28T11:57:26;100451.96;;;15.20;82.82
11499;BME280;5806;48.748;9.278;2023-04-28T11:59:53;100448.38;;;15.27;82.78
11499;BME280;5806;48.748;9.278;2023-04-28T12:02:26;100445.88;;;15.30;82.18
11499;BME280;5806;48.748;9.278;2023-04-28T12:04:54;100442.02;;;15.41;82.00
11499;BME280;5806;48.748;9.278;2023-04-28T12:07:22;100447.78;;;15.52;84.15
11499;BME280;5806;48.748;9.278;2023-04-28T12:10:12;100451.92;;;15.45;83.24
11499;BME280;5806;48.748;9.278;2023-04-28T12:12:41;100453.80;;;15.64;82.15
11499;BME280;5806;48.748;9.278;2023-04-28T12:15:09;100454.09;;;15.55;81.23
11499;BME280;5806;48.748;9.278;2023-04-28T12:17:39;100446.32;;;15.67;81.62
11499;BME280;5806;48.748;9.278;2023-04-28T12:20:11;100443.28;;;15.69;80.14
11499;BME280;5806;48.748;9.278;2023-04-28T12:22:46;100435.64;;;16.04;79.81
11499;BME280;5806;48.748;9.278;2023-04-28T12:25:16;100441.91;;;16.20;77.70
11499;BME280;5806;48.748;9.278;2023-04-28T12:28:03;100439.11;;;16.25;79.54
11499;BME280;5806;48.748;9.278;2023-04-28T12:30:33;100430.14;;;16.07;79.07
11499;BME280;5806;48.748;9.278;2023-04-28T12:33:01;100428.93;;;16.23;77.72
11499;BME280;5806;48.748;9.278;2023-04-28T12:35:29;100428.64;;;16.22;78.36
11499;BME280;5806;48.748;9.278;2023-04-28T12:37:58;100430.61;;;16.16;78.35
11499;BME280;5806;48.748;9.278;2023-04-28T12:40:26;100436.01;;;16.34;78.33
11499;BME280;5806;48.748;9.278;2023-04-28T12:42:53;100421.38;;;16.36;76.79
11499;BME280;5806;48.748;9.278;2023-04-28T12:45:21;100431.02;;;16.38;77.82
11499;BME280;5806;48.748;9.278;2023-04-28T12:47:49;100420.34;;;16.27;78.91
11499;BME280;5806;48.748;9.278;2023-04-28T12:50:16;100417.78;;;16.43;77.28
11499;BME280;5806;48.748;9.278;2023-04-28T12:52:44;100415.84;;;16.74;75.74
11499;BME280;5806;48.748;9.278;2023-04-28T12:55:11;100411.91;;;16.80;75.95
11499;BME280;5806;48.748;9.278;2023-04-28T12:57:39;100409.27;;;16.96;76.12
11499;BME280;5806;48.748;9.278;2023-04-28T13:00:07;100402.23;;;17.09;75.26
11499;BME280;5806;48.748;9.278;2023-04-28T13:02:35;100403.70;;;16.99;74.90
11499;BME280;5806;48.748;9.278;2023-04-28T13:05:03;100404.55;;;17.23;73.36
11499;BME280;5806;48.748;9.278;2023-04-28T13:07:32;100396.86;;;16.94;73.97
11499;BME280;5806;48.748;9.278;2023-04-28T13:10:00;100398.41;;;17.05;73.71
11499;BME280;5806;48.748;9.278;2023-04-28T13:12:27;100402.75;;;17.11;72.72
11499;BME280;5806;48.748;9.278;2023-04-28T13:14:55;100399.16;;;17.13;72.69
11499;BME280;5806;48.748;9.278;2023-04-28T13:17:22;100387.13;;;16.99;72.66
11499;BME280;5806;48.748;9.278;2023-04-28T13:19:50;100394.12;;;16.65;74.59